Overview Statistics Trail Chart Weather Telemetry Raw packets
 

This is the latest recevied weather packets stored in our database for station/object CT1EDG-13. If no packets are shown the sender has not sent any weather packets the latest 10 day(s).

<< 5 6 7 8 9 10 11 >>
Time Temp. Humidity Pressure Rain* Wind** Luminosity Snow
1788573831 23.89° C 83% 1007.9 hPa 0 mm - - -
1788573232 23.89° C 83% 1008 hPa 0 mm - - -
1788573231 23.89° C 83% 1008 hPa 0 mm - - -
1788572632 25° C 80% 1007.9 hPa 0 mm - - -
1788572631 25° C 80% 1007.9 hPa 0 mm - - -
1788572032 24.44° C 82% 1008.1 hPa 0 mm - - -
1788572031 24.44° C 82% 1008.1 hPa 0 mm - - -
1788571432 24.44° C 81% 1008.1 hPa 0 mm - - -
1788571431 24.44° C 81% 1008.1 hPa 0 mm - - -
1788570833 24.44° C 82% 1008.1 hPa 0 mm - - -
1788570831 24.44° C 82% 1008.1 hPa 0 mm - - -
1788570232 24.44° C 82% 1008.1 hPa 0 mm - - -
1788570231 24.44° C 82% 1008.1 hPa 0 mm - - -
1788569632 23.33° C 87% 1008.3 hPa 0 mm - - -
1788569631 23.33° C 87% 1008.3 hPa 0 mm - - -
1788569032 23.33° C 85% 1008.4 hPa 0 mm - - -
1788569031 23.33° C 85% 1008.4 hPa 0 mm - - -
1788568432 23.33° C 87% 1008.5 hPa 0 mm - - -
1788568431 23.33° C 87% 1008.5 hPa 0 mm - - -
1788567832 23.33° C 87% 1008.6 hPa 0 mm - - -
1788567831 23.33° C 87% 1008.6 hPa 0 mm - - -
1788567262 24.44° C 82% 1008.6 hPa 0 mm - - -
1788567262 24.44° C 82% 1008.6 hPa 0 mm - - -
1788566633 25° C 78% 1008.6 hPa 0 mm - - -
1788566631 25° C 78% 1008.6 hPa 0 mm - - -

* Rain latest hour (hover to see other rain measurements)
** Current wind speed in m/s (hover to see current wind gust speed)